createdAt,value
2017-10-20T00:00:54.393Z,88.10
2017-10-20T00:03:21.970Z,88.00
2017-10-20T00:05:49.520Z,88.10
2017-10-20T00:08:16.994Z,89.00
2017-10-20T00:10:45.245Z,88.40
2017-10-20T00:13:12.727Z,88.30
2017-10-20T00:15:40.988Z,88.30
2017-10-20T00:18:08.496Z,89.00
2017-10-20T00:20:35.966Z,88.30
2017-10-20T00:23:03.443Z,88.20
2017-10-20T00:25:30.922Z,88.30
2017-10-20T00:27:58.398Z,88.20
2017-10-20T00:30:25.894Z,88.10
2017-10-20T00:32:53.411Z,87.90
2017-10-20T00:35:21.650Z,87.70
2017-10-20T00:37:49.232Z,87.60
2017-10-20T00:40:16.700Z,87.70
2017-10-20T00:42:44.939Z,87.70
2017-10-20T00:45:12.410Z,87.60
2017-10-20T00:47:39.966Z,87.70
2017-10-20T00:50:07.451Z,87.60
2017-10-20T00:52:35.688Z,87.40
2017-10-20T00:55:03.265Z,87.30
2017-10-20T00:57:30.738Z,87.30
2017-10-20T00:59:58.988Z,87.30
2017-10-20T01:02:26.465Z,87.30
2017-10-20T01:04:54.703Z,87.20
2017-10-20T01:07:22.183Z,87.70
2017-10-20T01:09:50.461Z,86.70
2017-10-20T01:12:18.707Z,88.00
2017-10-20T01:14:46.180Z,87.00
2017-10-20T01:17:13.734Z,87.00
2017-10-20T01:19:41.209Z,86.80
2017-10-20T01:22:08.681Z,86.80
2017-10-20T01:24:36.924Z,86.70
2017-10-20T01:27:04.424Z,86.70
2017-10-20T01:29:32.678Z,86.60
2017-10-20T01:32:00.147Z,86.50
2017-10-20T01:34:28.397Z,86.50
2017-10-20T01:36:55.867Z,86.50
2017-10-20T01:39:24.114Z,86.40
2017-10-20T01:41:51.705Z,86.40
2017-10-20T01:44:19.964Z,86.40
2017-10-20T01:46:47.432Z,86.40
2017-10-20T01:49:15.702Z,86.30
2017-10-20T01:51:43.978Z,86.50
2017-10-20T01:54:11.463Z,86.10
2017-10-20T01:56:39.061Z,86.30
2017-10-20T01:59:06.652Z,86.20
2017-10-20T02:01:34.214Z,86.00
2017-10-20T02:04:01.683Z,86.10
2017-10-20T02:06:29.207Z,86.10
2017-10-20T02:08:56.685Z,86.00
2017-10-20T02:11:24.163Z,86.00
2017-10-20T02:13:51.642Z,86.70
2017-10-20T02:16:19.114Z,85.90
2017-10-20T02:18:46.591Z,86.00
2017-10-20T02:21:14.168Z,85.90
2017-10-20T02:23:41.638Z,85.70
2017-10-20T02:26:09.882Z,85.60
2017-10-20T02:28:37.367Z,85.60
2017-10-20T02:31:04.913Z,85.80
2017-10-20T02:33:33.193Z,86.00
2017-10-20T02:36:01.580Z,85.70
2017-10-20T02:38:29.852Z,86.00
2017-10-20T02:40:58.086Z,85.90
2017-10-20T02:43:25.561Z,85.80
2017-10-20T02:45:53.136Z,85.80
2017-10-20T02:48:21.384Z,86.40
2017-10-20T02:50:48.856Z,85.70
2017-10-20T02:53:16.337Z,85.80
2017-10-20T02:55:44.591Z,86.10
2017-10-20T02:58:12.066Z,86.10
2017-10-20T03:00:40.325Z,85.90
2017-10-20T03:03:07.941Z,85.80
2017-10-20T03:05:35.454Z,85.70
2017-10-20T03:08:03.724Z,85.90
2017-10-20T03:10:31.226Z,85.70
2017-10-20T03:12:58.737Z,86.10
2017-10-20T03:15:26.310Z,85.70
2017-10-20T03:17:54.627Z,85.30
2017-10-20T03:20:22.101Z,85.20
2017-10-20T03:22:49.577Z,85.40
2017-10-20T03:25:17.145Z,85.30
2017-10-20T03:27:44.760Z,85.40
2017-10-20T03:30:12.266Z,85.70
2017-10-20T03:32:39.822Z,85.40
2017-10-20T03:35:07.303Z,85.10
2017-10-20T03:37:35.538Z,85.10
2017-10-20T03:40:03.056Z,85.10
2017-10-20T03:42:30.574Z,85.10
2017-10-20T03:44:58.849Z,84.50
2017-10-20T03:47:26.330Z,85.10
2017-10-20T03:49:53.874Z,84.50
2017-10-20T03:52:22.145Z,85.10
2017-10-20T03:54:50.413Z,85.10
2017-10-20T03:57:17.923Z,85.10
2017-10-20T03:59:45.433Z,85.10
2017-10-20T04:02:12.911Z,85.10
2017-10-20T04:04:40.395Z,85.00
2017-10-20T04:07:07.887Z,84.80
2017-10-20T04:09:35.361Z,84.80
2017-10-20T04:12:03.625Z,84.70
2017-10-20T04:14:31.111Z,84.60
2017-10-20T04:16:58.593Z,84.70
2017-10-20T04:19:26.062Z,84.70
2017-10-20T04:21:53.545Z,84.70
2017-10-20T04:24:21.018Z,84.80
2017-10-20T04:26:48.502Z,84.80
2017-10-20T04:29:15.979Z,84.80
2017-10-20T04:31:43.462Z,84.70
2017-10-20T04:34:10.937Z,84.70
2017-10-20T04:36:38.579Z,84.60
2017-10-20T04:39:06.059Z,84.70
2017-10-20T04:41:33.538Z,84.80
2017-10-20T04:44:01.805Z,84.80
2017-10-20T04:46:30.070Z,84.80
2017-10-20T04:48:57.625Z,84.60
2017-10-20T04:51:25.099Z,85.30
2017-10-20T04:53:53.366Z,84.70
2017-10-20T04:56:21.619Z,84.10
2017-10-20T04:58:49.101Z,84.70
2017-10-20T05:01:17.362Z,84.50
2017-10-20T05:03:44.841Z,84.50
2017-10-20T05:06:13.094Z,84.50
2017-10-20T05:08:40.602Z,84.50
2017-10-20T05:11:08.171Z,84.60
2017-10-20T05:13:35.649Z,84.60
2017-10-20T05:16:03.127Z,84.50
2017-10-20T05:18:31.409Z,84.50
2017-10-20T05:20:59.674Z,84.30
2017-10-20T05:23:27.250Z,84.90
2017-10-20T05:25:55.526Z,84.40
2017-10-20T05:28:23.849Z,84.50
2017-10-20T05:30:51.317Z,84.40
2017-10-20T05:33:18.809Z,84.30
2017-10-20T05:35:46.373Z,84.20
2017-10-20T05:38:13.925Z,84.00
2017-10-20T05:40:41.402Z,84.20
2017-10-20T05:43:09.712Z,84.40
2017-10-20T05:45:37.189Z,84.40
2017-10-20T05:48:04.670Z,85.10
2017-10-20T05:50:32.158Z,84.40
2017-10-20T05:52:59.634Z,84.10
2017-10-20T05:55:27.147Z,83.90
2017-10-20T05:57:54.720Z,83.90
2017-10-20T06:00:23.053Z,84.10
2017-10-20T06:02:50.542Z,84.10
2017-10-20T06:05:18.006Z,84.10
2017-10-20T06:07:46.266Z,84.30
2017-10-20T06:10:13.835Z,84.20
2017-10-20T06:12:42.078Z,84.10
2017-10-20T06:15:09.558Z,84.10
2017-10-20T06:17:40.646Z,84.40
2017-10-20T06:20:08.128Z,84.20
2017-10-20T06:22:35.614Z,83.70
2017-10-20T06:25:03.091Z,83.50
2017-10-20T06:27:31.346Z,83.60
2017-10-20T06:29:58.827Z,83.60
2017-10-20T06:32:26.306Z,83.40
2017-10-20T06:34:53.818Z,83.50
2017-10-20T06:37:21.294Z,83.50
2017-10-20T06:39:49.534Z,83.20
2017-10-20T06:42:17.015Z,83.20
2017-10-20T06:44:45.258Z,83.00
2017-10-20T06:47:12.740Z,82.80
2017-10-20T06:49:40.297Z,82.70
2017-10-20T06:52:07.769Z,83.50
2017-10-20T06:54:36.018Z,82.60
2017-10-20T06:57:03.588Z,82.50
2017-10-20T06:59:31.180Z,82.40
2017-10-20T07:01:58.658Z,83.20
2017-10-20T07:04:26.166Z,82.30
2017-10-20T07:06:53.633Z,82.20
2017-10-20T07:09:21.911Z,82.20
2017-10-20T07:11:50.161Z,81.70
2017-10-20T07:14:17.635Z,81.70
2017-10-20T07:16:45.880Z,81.30
2017-10-20T07:19:17.133Z,81.30
2017-10-20T07:21:44.618Z,81.00
2017-10-20T07:24:12.893Z,81.20
2017-10-20T07:26:41.229Z,81.10
2017-10-20T07:29:08.703Z,81.10
2017-10-20T07:31:36.178Z,80.90
2017-10-20T07:34:03.648Z,80.80
2017-10-20T07:36:31.892Z,80.40
2017-10-20T07:38:59.362Z,80.40
2017-10-20T07:41:26.938Z,80.20
2017-10-20T07:43:55.174Z,79.10
2017-10-20T07:46:22.646Z,79.00
2017-10-20T07:48:50.214Z,79.10
2017-10-20T07:51:17.687Z,78.30
2017-10-20T07:53:45.930Z,78.50
2017-10-20T07:56:13.417Z,78.50
2017-10-20T07:58:41.651Z,77.60
2017-10-20T08:01:09.173Z,77.50
2017-10-20T08:03:36.690Z,77.20
2017-10-20T08:06:04.250Z,76.50
2017-10-20T08:08:32.485Z,76.80
2017-10-20T08:10:59.952Z,76.80
2017-10-20T08:13:27.426Z,75.40
2017-10-20T08:15:54.903Z,75.80
2017-10-20T08:18:22.389Z,75.90
2017-10-20T08:20:49.917Z,75.50
2017-10-20T08:23:17.469Z,74.70
2017-10-20T08:25:44.940Z,74.50
2017-10-20T08:28:13.208Z,73.10
2017-10-20T08:30:40.678Z,73.10
2017-10-20T08:33:09.326Z,74.10
2017-10-20T08:35:36.808Z,74.10
2017-10-20T08:38:05.993Z,71.70
2017-10-20T08:40:33.477Z,72.20
2017-10-20T08:43:01.745Z,69.70
2017-10-20T08:45:30.015Z,68.20
2017-10-20T08:47:58.242Z,67.40
2017-10-20T08:50:25.746Z,67.40
2017-10-20T08:52:53.222Z,66.80
2017-10-20T08:55:21.486Z,68.50
2017-10-20T08:57:49.745Z,65.40
2017-10-20T09:00:17.313Z,65.30
2017-10-20T09:02:45.550Z,67.20
2017-10-20T09:05:13.048Z,66.80
2017-10-20T09:07:40.519Z,67.10
2017-10-20T09:10:08.776Z,68.40
2017-10-20T09:12:36.252Z,67.50
2017-10-20T09:15:04.488Z,67.90
2017-10-20T09:17:31.959Z,67.90
2017-10-20T09:19:59.462Z,67.00
2017-10-20T09:22:26.943Z,66.50
2017-10-20T09:24:54.417Z,67.40
2017-10-20T09:27:21.986Z,67.50
2017-10-20T09:29:50.982Z,64.60
2017-10-20T09:32:18.461Z,64.50
2017-10-20T09:34:46.731Z,62.20
2017-10-20T09:37:15.010Z,62.80
2017-10-20T09:39:43.249Z,62.80
2017-10-20T09:42:10.758Z,62.70
2017-10-20T09:44:38.222Z,63.00
2017-10-20T09:47:05.738Z,64.00
2017-10-20T09:49:33.210Z,64.10
2017-10-20T09:52:01.473Z,65.30
2017-10-20T09:54:29.001Z,65.30
2017-10-20T09:56:56.490Z,64.50
2017-10-20T09:59:24.795Z,63.90
2017-10-20T10:01:52.262Z,62.90
2017-10-20T10:04:19.795Z,62.70
2017-10-20T10:06:48.051Z,60.70
2017-10-20T10:09:15.534Z,60.60
2017-10-20T10:11:43.793Z,60.00
2017-10-20T10:14:12.038Z,60.20
2017-10-20T10:16:39.530Z,60.00
2017-10-20T10:19:07.839Z,61.40
2017-10-20T10:21:35.354Z,61.30
2017-10-20T10:24:02.845Z,62.30
2017-10-20T10:26:30.361Z,62.80
2017-10-20T10:28:57.922Z,63.20
2017-10-20T10:31:25.428Z,63.70
2017-10-20T10:33:52.951Z,64.10
2017-10-20T10:36:21.192Z,64.30
2017-10-20T10:38:48.687Z,64.30
2017-10-20T10:41:16.941Z,64.50
2017-10-20T10:43:44.411Z,64.40
2017-10-20T10:46:12.685Z,64.10
2017-10-20T10:48:40.933Z,63.60
2017-10-20T10:51:08.413Z,63.00
2017-10-20T10:53:35.899Z,63.40
2017-10-20T10:56:03.401Z,63.80
2017-10-20T10:58:30.867Z,61.10
2017-10-20T11:00:58.342Z,61.30
2017-10-20T11:03:25.898Z,61.00
2017-10-20T11:06:06.917Z,62.30
2017-10-20T11:08:46.328Z,62.40
2017-10-20T11:11:26.593Z,63.80
2017-10-20T11:13:54.837Z,64.10
2017-10-20T11:16:22.364Z,64.00
2017-10-20T11:18:49.904Z,64.40
2017-10-20T11:21:17.377Z,65.40
2017-10-20T11:23:44.841Z,66.00
2017-10-20T11:26:12.431Z,66.10
2017-10-20T11:28:39.914Z,66.00
2017-10-20T11:31:07.387Z,66.00
2017-10-20T11:33:34.901Z,66.70
2017-10-20T11:36:03.151Z,66.90
2017-10-20T11:38:30.627Z,67.00
2017-10-20T11:40:59.882Z,67.10
2017-10-20T11:43:27.362Z,67.00
2017-10-20T11:45:54.841Z,67.20
2017-10-20T11:48:22.326Z,67.40
2017-10-20T11:50:50.574Z,68.00
2017-10-20T11:53:18.057Z,68.00
2017-10-20T11:55:45.525Z,68.30
2017-10-20T11:58:13.046Z,68.50
2017-10-20T12:00:40.514Z,68.50
2017-10-20T12:03:09.138Z,68.50
2017-10-20T12:05:36.611Z,68.50
2017-10-20T12:08:04.199Z,68.70
2017-10-20T12:10:33.175Z,68.70
2017-10-20T12:13:00.646Z,68.70
2017-10-20T12:15:28.122Z,68.90
2017-10-20T12:17:56.370Z,69.90
2017-10-20T12:20:23.862Z,69.80
2017-10-20T12:22:52.094Z,70.00
2017-10-20T12:25:19.589Z,70.00
2017-10-20T12:27:47.886Z,69.90
2017-10-20T12:30:15.424Z,69.80
2017-10-20T12:32:43.798Z,69.90
2017-10-20T12:35:12.067Z,70.10
2017-10-20T12:37:39.538Z,70.00
2017-10-20T12:40:07.790Z,70.60
2017-10-20T12:42:35.249Z,70.50
2017-10-20T12:45:02.718Z,71.00
2017-10-20T12:47:30.962Z,70.60
2017-10-20T12:49:58.534Z,70.60
2017-10-20T12:52:26.004Z,71.10
2017-10-20T12:54:53.475Z,70.60
2017-10-20T12:57:21.711Z,70.80
2017-10-20T12:59:49.183Z,70.70
2017-10-20T13:02:16.649Z,70.60
2017-10-20T13:04:44.122Z,71.10
2017-10-20T13:07:12.361Z,71.30
2017-10-20T13:09:39.858Z,71.10
2017-10-20T13:12:08.146Z,70.60
2017-10-20T13:14:35.667Z,70.60
2017-10-20T13:17:03.218Z,71.00
2017-10-20T13:19:30.690Z,71.00
2017-10-20T13:21:58.931Z,70.80
2017-10-20T13:24:26.394Z,70.80
2017-10-20T13:26:53.874Z,71.20
2017-10-20T13:29:21.343Z,71.20
2017-10-20T13:31:49.637Z,70.90
2017-10-20T13:34:17.097Z,70.90
2017-10-20T13:36:44.614Z,71.10
2017-10-20T13:39:12.082Z,70.70
2017-10-20T13:41:40.338Z,70.60
2017-10-20T13:44:07.902Z,70.60
2017-10-20T13:46:36.177Z,70.40
2017-10-20T13:49:05.160Z,70.60
2017-10-20T13:51:32.726Z,70.50
2017-10-20T13:54:00.206Z,70.50
2017-10-20T13:56:28.461Z,70.60
2017-10-20T13:58:55.939Z,70.50
2017-10-20T14:01:24.293Z,70.60
2017-10-20T14:03:51.770Z,70.40
2017-10-20T14:06:20.018Z,70.90
2017-10-20T14:08:47.581Z,70.80
2017-10-20T14:11:15.075Z,71.10
2017-10-20T14:13:43.318Z,70.60
2017-10-20T14:16:11.546Z,70.40
2017-10-20T14:18:39.018Z,70.50
2017-10-20T14:21:06.502Z,70.80
2017-10-20T14:23:34.797Z,71.10
2017-10-20T14:26:02.267Z,71.10
2017-10-20T14:28:30.527Z,71.40
2017-10-20T14:30:57.998Z,71.30
2017-10-20T14:33:26.242Z,72.30
2017-10-20T14:35:53.810Z,72.30
2017-10-20T14:38:22.065Z,72.10
2017-10-20T14:40:49.538Z,72.10
2017-10-20T14:43:17.791Z,72.50
2017-10-20T14:45:45.261Z,72.40
2017-10-20T14:48:12.731Z,71.90
2017-10-20T14:50:40.205Z,74.10
2017-10-20T14:53:08.469Z,74.20
2017-10-20T14:55:35.942Z,74.20
2017-10-20T14:58:04.245Z,74.30
2017-10-20T15:00:31.727Z,74.30
2017-10-20T15:02:59.199Z,74.00
2017-10-20T15:05:26.669Z,74.40
2017-10-20T15:07:55.055Z,74.50
2017-10-20T15:10:22.521Z,74.80
2017-10-20T15:12:50.788Z,74.90
2017-10-20T15:15:19.162Z,74.80
2017-10-20T15:17:47.429Z,74.80
2017-10-20T15:20:15.003Z,75.20
2017-10-20T15:22:43.260Z,75.60
2017-10-20T15:25:10.732Z,75.40
2017-10-20T15:27:38.210Z,75.70
2017-10-20T15:30:05.682Z,75.70
2017-10-20T15:32:33.147Z,76.10
2017-10-20T15:35:00.645Z,76.10
2017-10-20T15:37:29.617Z,75.70
2017-10-20T15:39:57.094Z,75.70
2017-10-20T15:42:24.607Z,76.90
2017-10-20T15:44:52.130Z,77.40
2017-10-20T15:47:20.377Z,77.20
2017-10-20T15:49:48.619Z,77.90
2017-10-20T15:52:16.173Z,77.40
2017-10-20T15:54:45.218Z,77.30
2017-10-20T15:57:12.741Z,76.80
2017-10-20T15:59:40.261Z,77.30
2017-10-20T16:02:07.821Z,79.20
2017-10-20T16:04:35.294Z,78.20
2017-10-20T16:07:02.773Z,78.20
2017-10-20T16:09:30.291Z,78.10
2017-10-20T16:11:57.755Z,78.00
2017-10-20T16:14:25.229Z,78.10
2017-10-20T16:16:52.744Z,78.10
2017-10-20T16:19:20.225Z,78.00
2017-10-20T16:21:47.690Z,78.40
2017-10-20T16:24:15.206Z,78.10
2017-10-20T16:26:44.252Z,78.20
2017-10-20T16:29:11.735Z,78.20
2017-10-20T16:31:39.313Z,78.30
2017-10-20T16:34:06.778Z,78.40
2017-10-20T16:36:34.252Z,78.40
2017-10-20T16:39:02.559Z,78.50
2017-10-20T16:41:30.038Z,78.40
2017-10-20T16:43:57.519Z,78.60
2017-10-20T16:46:24.997Z,78.80
2017-10-20T16:48:53.254Z,79.10
2017-10-20T16:51:20.731Z,79.10
2017-10-20T16:53:48.967Z,79.50
2017-10-20T16:56:16.442Z,79.50
2017-10-20T16:58:44.697Z,79.70
2017-10-20T17:01:12.206Z,79.70
2017-10-20T17:03:39.669Z,80.00
2017-10-20T17:06:07.186Z,79.70
2017-10-20T17:08:35.428Z,79.70
2017-10-20T17:11:02.897Z,79.80
2017-10-20T17:13:30.474Z,79.70
2017-10-20T17:15:57.952Z,79.80
2017-10-20T17:18:26.198Z,79.60
2017-10-20T17:20:53.677Z,79.50
2017-10-20T17:23:21.153Z,79.40
2017-10-20T17:25:48.689Z,79.70
2017-10-20T17:28:16.162Z,79.80
2017-10-20T17:30:44.401Z,79.90
2017-10-20T17:33:13.399Z,80.90
2017-10-20T17:35:40.871Z,80.80
2017-10-20T17:38:09.105Z,81.00
2017-10-20T17:40:36.580Z,81.00
2017-10-20T17:43:04.063Z,81.20
2017-10-20T17:45:32.300Z,81.30
2017-10-20T17:47:59.850Z,81.20
2017-10-20T17:50:27.337Z,81.00
2017-10-20T17:52:54.897Z,80.70
2017-10-20T17:55:22.373Z,80.70
2017-10-20T17:57:50.614Z,80.70
2017-10-20T18:00:18.205Z,80.70
2017-10-20T18:02:46.439Z,81.10
2017-10-20T18:05:13.914Z,80.90
2017-10-20T18:07:41.418Z,81.30
2017-10-20T18:10:08.942Z,80.70
2017-10-20T18:12:36.406Z,80.80
2017-10-20T18:15:04.673Z,81.40
2017-10-20T18:17:32.154Z,81.30
2017-10-20T18:20:00.405Z,81.60
2017-10-20T18:22:28.682Z,82.10
2017-10-20T18:24:56.262Z,82.20
2017-10-20T18:27:24.527Z,82.70
2017-10-20T18:29:52.781Z,83.00
2017-10-20T18:32:20.258Z,83.00
2017-10-20T18:34:48.517Z,83.00
2017-10-20T18:37:16.073Z,83.00
2017-10-20T18:39:43.588Z,83.20
2017-10-20T18:42:11.068Z,83.40
2017-10-20T18:44:38.557Z,84.00
2017-10-20T18:47:06.231Z,84.90
2017-10-20T18:49:34.469Z,85.10
2017-10-20T18:52:01.954Z,85.10
2017-10-20T18:54:30.202Z,85.10
2017-10-20T18:56:57.786Z,85.20
2017-10-20T18:59:25.255Z,85.50
2017-10-20T19:01:53.669Z,86.30
2017-10-20T19:04:21.134Z,86.10
2017-10-20T19:06:48.632Z,86.10
2017-10-20T19:09:16.110Z,85.60
2017-10-20T19:11:44.361Z,85.30
2017-10-20T19:14:11.846Z,85.30
2017-10-20T19:16:39.312Z,85.40
2017-10-20T19:19:06.831Z,85.30
2017-10-20T19:21:34.393Z,85.60
2017-10-20T19:24:01.957Z,85.30
2017-10-20T19:26:29.468Z,85.60
2017-10-20T19:28:56.973Z,85.40
2017-10-20T19:31:24.442Z,85.70
2017-10-20T19:33:52.677Z,85.50
2017-10-20T19:36:20.159Z,85.30
2017-10-20T19:38:47.660Z,85.70
2017-10-20T19:41:15.131Z,86.10
2017-10-20T19:43:42.641Z,86.80
2017-10-20T19:46:10.914Z,86.60
2017-10-20T19:48:39.181Z,86.80
2017-10-20T19:51:06.742Z,86.80
2017-10-20T19:53:34.205Z,86.80
2017-10-20T19:56:02.480Z,86.60
2017-10-20T19:58:30.729Z,86.60
2017-10-20T20:00:58.240Z,86.40
2017-10-20T20:03:25.714Z,86.50
2017-10-20T20:05:53.194Z,86.70
2017-10-20T20:08:20.670Z,86.90
2017-10-20T20:10:48.155Z,87.10
2017-10-20T20:13:16.402Z,87.20
2017-10-20T20:15:43.985Z,87.20
2017-10-20T20:18:12.238Z,87.40
2017-10-20T20:20:40.514Z,87.60
2017-10-20T20:23:08.790Z,87.40
2017-10-20T20:25:36.253Z,87.50
2017-10-20T20:28:04.498Z,87.70
2017-10-20T20:30:32.899Z,87.60
2017-10-20T20:33:00.371Z,87.20
2017-10-20T20:35:28.597Z,86.80
2017-10-20T20:37:56.079Z,86.70
2017-10-20T20:40:23.542Z,86.40
2017-10-20T20:42:51.055Z,85.60
2017-10-20T20:45:18.554Z,85.90
2017-10-20T20:47:46.113Z,85.40
2017-10-20T20:50:13.682Z,85.60
2017-10-20T20:52:41.949Z,85.10
2017-10-20T20:55:09.459Z,85.00
2017-10-20T20:57:36.969Z,85.10
2017-10-20T21:00:04.439Z,84.60
2017-10-20T21:02:32.682Z,85.10
2017-10-20T21:05:00.187Z,85.00
2017-10-20T21:07:27.710Z,84.60
2017-10-20T21:09:55.185Z,85.10
2017-10-20T21:12:23.451Z,85.30
2017-10-20T21:14:51.003Z,85.20
2017-10-20T21:17:18.466Z,85.80
2017-10-20T21:19:51.802Z,85.80
2017-10-20T21:22:19.365Z,86.10
2017-10-20T21:24:46.869Z,85.90
2017-10-20T21:27:14.431Z,86.10
2017-10-20T21:29:41.987Z,86.00
2017-10-20T21:32:09.464Z,86.00
2017-10-20T21:34:37.718Z,86.00
2017-10-20T21:37:05.178Z,86.00
2017-10-20T21:39:33.433Z,86.00
2017-10-20T21:42:00.992Z,86.00
2017-10-20T21:44:28.458Z,86.00
2017-10-20T21:46:55.926Z,85.90
2017-10-20T21:49:23.397Z,85.90
2017-10-20T21:51:51.638Z,85.80
2017-10-20T21:54:19.216Z,85.80
2017-10-20T21:56:46.726Z,85.70
2017-10-20T21:59:14.208Z,85.70
2017-10-20T22:01:41.674Z,85.70
2017-10-20T22:04:09.247Z,85.50
2017-10-20T22:06:36.807Z,85.60
2017-10-20T22:09:04.282Z,85.50
2017-10-20T22:11:32.915Z,85.60
2017-10-20T22:14:00.382Z,85.60
2017-10-20T22:16:27.862Z,85.70
2017-10-20T22:18:55.338Z,85.60
2017-10-20T22:21:23.587Z,85.20
2017-10-20T22:23:51.151Z,85.20
2017-10-20T22:26:18.702Z,85.50
2017-10-20T22:28:46.176Z,85.00
2017-10-20T22:31:14.433Z,85.30
2017-10-20T22:33:41.999Z,84.40
2017-10-20T22:36:09.523Z,84.70
2017-10-20T22:38:37.009Z,84.80
2017-10-20T22:41:04.476Z,84.90
2017-10-20T22:43:31.951Z,85.00
2017-10-20T22:46:00.209Z,84.90
2017-10-20T22:48:27.758Z,84.90
2017-10-20T22:50:55.318Z,84.40
2017-10-20T22:53:22.876Z,84.60
2017-10-20T22:55:50.440Z,84.40
2017-10-20T22:58:17.998Z,84.70
2017-10-20T23:00:45.466Z,84.80
2017-10-20T23:03:13.821Z,84.40
2017-10-20T23:05:41.290Z,84.20
2017-10-20T23:08:08.761Z,84.10
2017-10-20T23:10:37.018Z,84.40
2017-10-20T23:13:04.486Z,84.20
2017-10-20T23:15:32.042Z,84.10
2017-10-20T23:18:00.368Z,83.90
2017-10-20T23:20:27.868Z,83.80
2017-10-20T23:22:55.426Z,84.10
2017-10-20T23:25:22.908Z,84.00
2017-10-20T23:27:51.262Z,84.50
2017-10-20T23:30:18.827Z,84.40
2017-10-20T23:32:46.297Z,84.40
2017-10-20T23:35:14.538Z,84.80
2017-10-20T23:37:42.106Z,84.60
2017-10-20T23:40:10.389Z,85.00
2017-10-20T23:42:37.945Z,85.00
2017-10-20T23:45:05.430Z,84.30
2017-10-20T23:47:33.657Z,84.10
2017-10-20T23:50:01.133Z,84.00
2017-10-20T23:52:28.697Z,84.00
2017-10-20T23:54:56.175Z,84.10
2017-10-20T23:57:24.413Z,83.90
2017-10-20T23:59:51.881Z,83.70
